sensor_id;sensor_type;location;lat;lon;timestamp;pressure;altitude;pressure_sealevel;temperature;humidity
13478;BME280;12598;62.382;17.344;2023-05-16T00:00:33;101094.78;;;24.07;29.68
13478;BME280;12598;62.382;17.344;2023-05-16T00:01:35;101090.19;;;24.07;29.82
13478;BME280;12598;62.382;17.344;2023-05-16T00:02:38;101087.50;;;24.07;29.57
13478;BME280;12598;62.382;17.344;2023-05-16T00:03:41;101091.22;;;24.06;29.20
13478;BME280;12598;62.382;17.344;2023-05-16T00:04:43;101091.22;;;24.06;29.16
13478;BME280;12598;62.382;17.344;2023-05-16T00:05:46;101088.50;;;24.06;29.11
13478;BME280;12598;62.382;17.344;2023-05-16T00:06:48;101088.50;;;24.06;29.85
13478;BME280;12598;62.382;17.344;2023-05-16T00:07:50;101087.84;;;24.04;29.71
13478;BME280;12598;62.382;17.344;2023-05-16T00:08:52;101082.59;;;24.02;29.11
13478;BME280;12598;62.382;17.344;2023-05-16T00:09:54;101085.31;;;24.02;29.11
13478;BME280;12598;62.382;17.344;2023-05-16T00:10:56;101078.22;;;24.02;29.49
13478;BME280;12598;62.382;17.344;2023-05-16T00:11:57;101080.94;;;24.02;29.20
13478;BME280;12598;62.382;17.344;2023-05-16T00:13:00;101081.78;;;24.02;29.59
13478;BME280;12598;62.382;17.344;2023-05-16T00:14:02;101072.00;;;24.01;29.87
13478;BME280;12598;62.382;17.344;2023-05-16T00:15:09;101070.31;;;24.00;29.27
13478;BME280;12598;62.382;17.344;2023-05-16T00:16:13;101068.28;;;24.02;29.55
13478;BME280;12598;62.382;17.344;2023-05-16T00:17:15;101077.41;;;24.01;29.74
13478;BME280;12598;62.382;17.344;2023-05-16T00:18:18;101071.16;;;24.01;29.39
13478;BME280;12598;62.382;17.344;2023-05-16T00:19:20;101069.47;;;24.00;29.39
13478;BME280;12598;62.382;17.344;2023-05-16T00:20:23;101060.53;;;23.99;29.19
13478;BME280;12598;62.382;17.344;2023-05-16T00:21:25;101063.22;;;23.99;29.19
13478;BME280;12598;62.382;17.344;2023-05-16T00:22:27;101058.84;;;23.98;29.81
13478;BME280;12598;62.382;17.344;2023-05-16T00:23:30;101049.44;;;23.94;29.17
13478;BME280;12598;62.382;17.344;2023-05-16T00:24:32;101060.22;;;23.94;29.34
13478;BME280;12598;62.382;17.344;2023-05-16T00:25:34;101054.28;;;23.99;29.58
13478;BME280;12598;62.382;17.344;2023-05-16T00:26:37;101063.41;;;23.98;29.79
13478;BME280;12598;62.382;17.344;2023-05-16T00:27:39;101057.16;;;23.97;29.10
13478;BME280;12598;62.382;17.344;2023-05-16T00:28:42;101057.16;;;23.97;30.03
13478;BME280;12598;62.382;17.344;2023-05-16T00:29:44;101059.00;;;23.97;29.89
13478;BME280;12598;62.382;17.344;2023-05-16T00:30:46;101048.41;;;23.95;29.28
13478;BME280;12598;62.382;17.344;2023-05-16T00:31:49;101055.50;;;23.96;29.86
13478;BME280;12598;62.382;17.344;2023-05-16T00:32:53;101048.41;;;23.95;29.88
13478;BME280;12598;62.382;17.344;2023-05-16T00:33:57;101050.91;;;23.97;29.40
13478;BME280;12598;62.382;17.344;2023-05-16T00:34:59;101050.09;;;23.96;29.34
13478;BME280;12598;62.382;17.344;2023-05-16T00:36:01;101051.09;;;23.95;29.35
13478;BME280;12598;62.382;17.344;2023-05-16T00:37:03;101047.56;;;23.95;29.57
13478;BME280;12598;62.382;17.344;2023-05-16T00:38:05;101044.84;;;23.95;29.27
13478;BME280;12598;62.382;17.344;2023-05-16T00:39:07;101045.72;;;23.95;29.25
13478;BME280;12598;62.382;17.344;2023-05-16T00:40:12;101048.41;;;23.95;29.46
13478;BME280;12598;62.382;17.344;2023-05-16T00:41:16;101042.34;;;23.93;29.53
13478;BME280;12598;62.382;17.344;2023-05-16T00:42:19;101042.34;;;23.93;29.92
13478;BME280;12598;62.382;17.344;2023-05-16T00:43:21;101046.53;;;23.96;29.25
13478;BME280;12598;62.382;17.344;2023-05-16T00:44:24;101048.41;;;23.95;29.97
13478;BME280;12598;62.382;17.344;2023-05-16T00:45:27;101053.97;;;23.94;29.98
13478;BME280;12598;62.382;17.344;2023-05-16T00:46:29;101056.66;;;23.94;29.39
13478;BME280;12598;62.382;17.344;2023-05-16T00:47:31;101049.59;;;23.93;29.37
13478;BME280;12598;62.382;17.344;2023-05-16T00:48:33;101053.16;;;23.93;29.31
13478;BME280;12598;62.382;17.344;2023-05-16T00:49:35;101054.16;;;23.92;29.36
13478;BME280;12598;62.382;17.344;2023-05-16T00:50:37;101060.59;;;23.91;30.01
13478;BME280;12598;62.382;17.344;2023-05-16T00:51:39;101063.28;;;23.91;29.41
13478;BME280;12598;62.382;17.344;2023-05-16T00:52:41;101051.63;;;23.91;29.71
13478;BME280;12598;62.382;17.344;2023-05-16T00:53:43;101058.72;;;23.92;29.41
13478;BME280;12598;62.382;17.344;2023-05-16T00:54:45;101064.13;;;23.92;29.57
13478;BME280;12598;62.382;17.344;2023-05-16T00:55:47;101054.34;;;23.91;30.14
13478;BME280;12598;62.382;17.344;2023-05-16T00:56:49;101061.59;;;23.90;29.77
13478;BME280;12598;62.382;17.344;2023-05-16T00:57:51;101057.22;;;23.89;29.59
13478;BME280;12598;62.382;17.344;2023-05-16T00:58:53;101057.03;;;23.91;29.33
13478;BME280;12598;62.382;17.344;2023-05-16T00:59:55;101067.00;;;23.90;29.25
13478;BME280;12598;62.382;17.344;2023-05-16T01:00:57;101057.38;;;23.88;29.73
13478;BME280;12598;62.382;17.344;2023-05-16T01:01:59;101054.22;;;23.84;29.67
13478;BME280;12598;62.382;17.344;2023-05-16T01:03:04;101059.94;;;23.89;29.29
13478;BME280;12598;62.382;17.344;2023-05-16T01:04:06;101069.72;;;23.90;29.88
13478;BME280;12598;62.382;17.344;2023-05-16T01:05:08;101061.59;;;23.90;29.65
13478;BME280;12598;62.382;17.344;2023-05-16T01:06:10;101070.53;;;23.91;30.02
13478;BME280;12598;62.382;17.344;2023-05-16T01:07:13;101071.56;;;23.90;29.22
13478;BME280;12598;62.382;17.344;2023-05-16T01:08:15;101071.75;;;23.88;29.84
13478;BME280;12598;62.382;17.344;2023-05-16T01:09:16;101074.44;;;23.88;29.46
13478;BME280;12598;62.382;17.344;2023-05-16T01:10:20;101055.25;;;23.83;29.78
13478;BME280;12598;62.382;17.344;2023-05-16T01:11:30;101061.09;;;23.87;30.12
13478;BME280;12598;62.382;17.344;2023-05-16T01:15:29;101051.78;;;23.97;29.89
13478;BME280;12598;62.382;17.344;2023-05-16T01:16:41;101045.72;;;23.95;29.64
13478;BME280;12598;62.382;17.344;2023-05-16T01:17:59;101053.63;;;23.97;29.26
13478;BME280;12598;62.382;17.344;2023-05-16T01:20:52;101056.44;;;24.03;28.98
13478;BME280;12598;62.382;17.344;2023-05-16T01:27:03;101065.94;;;23.99;29.54
13478;BME280;12598;62.382;17.344;2023-05-16T01:28:08;101063.59;;;23.96;29.41
13478;BME280;12598;62.382;17.344;2023-05-16T01:29:11;101050.44;;;23.93;29.51
13478;BME280;12598;62.382;17.344;2023-05-16T01:30:17;101043.53;;;23.91;30.03
13478;BME280;12598;62.382;17.344;2023-05-16T01:31:20;101042.88;;;23.89;29.33
13478;BME280;12598;62.382;17.344;2023-05-16T01:32:23;101034.28;;;23.85;29.46
13478;BME280;12598;62.382;17.344;2023-05-16T01:33:25;101046.59;;;23.88;29.56
13478;BME280;12598;62.382;17.344;2023-05-16T01:34:27;101058.25;;;23.88;29.69
13478;BME280;12598;62.382;17.344;2023-05-16T01:35:29;101048.16;;;23.82;29.40
13478;BME280;12598;62.382;17.344;2023-05-16T01:37:49;101059.94;;;23.89;29.18
13478;BME280;12598;62.382;17.344;2023-05-16T01:39:43;101056.44;;;24.03;29.24
13478;BME280;12598;62.382;17.344;2023-05-16T01:42:04;101053.25;;;24.00;29.20
13478;BME280;12598;62.382;17.344;2023-05-16T01:43:13;101047.38;;;23.96;29.75
13478;BME280;12598;62.382;17.344;2023-05-16T01:45:49;101048.88;;;23.99;29.19
13478;BME280;12598;62.382;17.344;2023-05-16T01:46:56;101043.38;;;23.92;29.14
13478;BME280;12598;62.382;17.344;2023-05-16T01:48:07;101004.94;;;23.74;29.38
13478;BME280;12598;62.382;17.344;2023-05-16T01:49:15;101044.84;;;23.95;29.08
13478;BME280;12598;62.382;17.344;2023-05-16T01:50:19;101036.28;;;23.91;29.71
13478;BME280;12598;62.382;17.344;2023-05-16T01:51:26;101036.44;;;23.90;29.42
13478;BME280;12598;62.382;17.344;2023-05-16T01:52:35;101034.59;;;23.90;29.50
13478;BME280;12598;62.382;17.344;2023-05-16T01:53:39;101036.28;;;23.91;29.53
13478;BME280;12598;62.382;17.344;2023-05-16T01:54:44;101032.91;;;23.89;29.90
13478;BME280;12598;62.382;17.344;2023-05-16T01:55:51;101038.31;;;23.89;29.44
13478;BME280;12598;62.382;17.344;2023-05-16T01:56:54;101038.31;;;23.89;29.81
13478;BME280;12598;62.382;17.344;2023-05-16T01:57:58;101032.25;;;23.87;29.72
13478;BME280;12598;62.382;17.344;2023-05-16T01:59:01;101030.38;;;23.88;29.16
13478;BME280;12598;62.382;17.344;2023-05-16T02:00:06;101030.38;;;23.88;29.97
13478;BME280;12598;62.382;17.344;2023-05-16T02:01:14;101030.88;;;23.91;30.04
13478;BME280;12598;62.382;17.344;2023-05-16T02:02:19;101030.56;;;23.86;29.36
13478;BME280;12598;62.382;17.344;2023-05-16T02:03:21;101025.19;;;23.86;29.77
13478;BME280;12598;62.382;17.344;2023-05-16T02:04:23;101032.06;;;23.89;29.40
13478;BME280;12598;62.382;17.344;2023-05-16T02:05:25;101024.16;;;23.87;29.89
13478;BME280;12598;62.382;17.344;2023-05-16T02:06:27;101017.72;;;23.88;29.34
13478;BME280;12598;62.382;17.344;2023-05-16T02:07:30;101025.84;;;23.88;30.13
13478;BME280;12598;62.382;17.344;2023-05-16T02:08:32;101029.56;;;23.87;29.59
13478;BME280;12598;62.382;17.344;2023-05-16T02:09:34;101031.25;;;23.88;29.59
13478;BME280;12598;62.382;17.344;2023-05-16T02:10:36;101027.69;;;23.88;29.55
13478;BME280;12598;62.382;17.344;2023-05-16T02:11:40;101026.66;;;23.89;29.93
13478;BME280;12598;62.382;17.344;2023-05-16T02:12:42;101025.84;;;23.88;29.13
13478;BME280;12598;62.382;17.344;2023-05-16T02:13:44;101033.94;;;23.88;29.36
13478;BME280;12598;62.382;17.344;2023-05-16T02:14:46;101031.25;;;23.88;29.68
13478;BME280;12598;62.382;17.344;2023-05-16T02:15:48;101028.53;;;23.88;30.01
13478;BME280;12598;62.382;17.344;2023-05-16T02:16:50;101028.53;;;23.88;29.76
13478;BME280;12598;62.382;17.344;2023-05-16T02:17:52;101017.91;;;23.87;29.98
13478;BME280;12598;62.382;17.344;2023-05-16T02:18:54;101021.63;;;23.86;30.11
13478;BME280;12598;62.382;17.344;2023-05-16T02:19:56;101020.59;;;23.87;29.78
13478;BME280;12598;62.382;17.344;2023-05-16T02:20:57;101014.38;;;23.86;29.89
13478;BME280;12598;62.382;17.344;2023-05-16T02:21:59;101008.97;;;23.86;29.31
13478;BME280;12598;62.382;17.344;2023-05-16T02:23:01;101003.06;;;23.83;29.66
13478;BME280;12598;62.382;17.344;2023-05-16T02:24:05;101009.63;;;23.88;29.59
13478;BME280;12598;62.382;17.344;2023-05-16T02:25:08;101011.66;;;23.86;29.15
13478;BME280;12598;62.382;17.344;2023-05-16T02:26:10;101006.28;;;23.86;29.79
13478;BME280;12598;62.382;17.344;2023-05-16T02:27:12;101006.28;;;23.86;29.38
13478;BME280;12598;62.382;17.344;2023-05-16T02:28:14;101006.28;;;23.86;29.79
13478;BME280;12598;62.382;17.344;2023-05-16T02:29:15;100993.41;;;23.80;29.39
13478;BME280;12598;62.382;17.344;2023-05-16T02:30:17;101001.88;;;23.85;29.49
13478;BME280;12598;62.382;17.344;2023-05-16T02:32:28;100998.81;;;23.88;29.88
13478;BME280;12598;62.382;17.344;2023-05-16T02:33:30;100989.22;;;23.86;28.99
13478;BME280;12598;62.382;17.344;2023-05-16T02:34:32;100994.59;;;23.86;29.40
13478;BME280;12598;62.382;17.344;2023-05-16T02:35:35;100992.94;;;23.85;29.69
13478;BME280;12598;62.382;17.344;2023-05-16T02:36:37;100994.81;;;23.84;29.38
13478;BME280;12598;62.382;17.344;2023-05-16T02:37:40;100994.81;;;23.84;29.17
13478;BME280;12598;62.382;17.344;2023-05-16T02:38:42;100983.63;;;23.79;29.62
13478;BME280;12598;62.382;17.344;2023-05-16T02:39:43;100987.53;;;23.85;29.50
13478;BME280;12598;62.382;17.344;2023-05-16T02:40:49;100972.19;;;23.77;29.59
13478;BME280;12598;62.382;17.344;2023-05-16T02:41:51;100980.28;;;23.85;29.31
13478;BME280;12598;62.382;17.344;2023-05-16T02:42:53;100982.97;;;23.85;29.40
13478;BME280;12598;62.382;17.344;2023-05-16T02:43:55;100977.75;;;23.84;29.15
13478;BME280;12598;62.382;17.344;2023-05-16T02:44:58;100982.13;;;23.85;29.19
13478;BME280;12598;62.382;17.344;2023-05-16T02:46:03;100980.44;;;23.84;29.25
13478;BME280;12598;62.382;17.344;2023-05-16T02:47:05;100976.22;;;23.81;29.26
13478;BME280;12598;62.382;17.344;2023-05-16T02:48:07;100971.81;;;23.80;29.63
13478;BME280;12598;62.382;17.344;2023-05-16T02:49:09;100984.00;;;23.84;29.81
13478;BME280;12598;62.382;17.344;2023-05-16T02:50:12;100982.13;;;23.85;29.73
13478;BME280;12598;62.382;17.344;2023-05-16T02:51:14;100985.84;;;23.84;29.04
13478;BME280;12598;62.382;17.344;2023-05-16T02:52:16;100984.00;;;23.84;29.78
13478;BME280;12598;62.382;17.344;2023-05-16T02:53:18;100988.56;;;23.84;29.82
13478;BME280;12598;62.382;17.344;2023-05-16T02:54:21;100992.09;;;23.84;29.43
13478;BME280;12598;62.382;17.344;2023-05-16T02:55:23;100986.69;;;23.84;29.40
13478;BME280;12598;62.382;17.344;2023-05-16T02:56:25;100981.31;;;23.84;29.26
13478;BME280;12598;62.382;17.344;2023-05-16T02:57:28;100984.00;;;23.84;29.80
13478;BME280;12598;62.382;17.344;2023-05-16T02:58:29;100998.31;;;23.85;29.05
13478;BME280;12598;62.382;17.344;2023-05-16T02:59:31;100992.09;;;23.84;28.98
13478;BME280;12598;62.382;17.344;2023-05-16T03:00:33;100998.31;;;23.85;29.72
13478;BME280;12598;62.382;17.344;2023-05-16T03:01:35;100989.41;;;23.84;28.91
13478;BME280;12598;62.382;17.344;2023-05-16T03:02:38;100984.81;;;23.85;28.90
13478;BME280;12598;62.382;17.344;2023-05-16T03:03:41;100981.31;;;23.84;28.91
13478;BME280;12598;62.382;17.344;2023-05-16T03:04:43;100985.03;;;23.83;29.53
13478;BME280;12598;62.382;17.344;2023-05-16T03:05:45;100982.31;;;23.83;28.91
13478;BME280;12598;62.382;17.344;2023-05-16T03:06:48;100979.63;;;23.83;29.56
13478;BME280;12598;62.382;17.344;2023-05-16T03:07:51;100984.16;;;23.83;29.60
13478;BME280;12598;62.382;17.344;2023-05-16T03:08:53;100979.91;;;23.80;29.01
13478;BME280;12598;62.382;17.344;2023-05-16T03:09:55;100983.34;;;23.82;29.34
13478;BME280;12598;62.382;17.344;2023-05-16T03:10:57;100986.03;;;23.82;29.41
13478;BME280;12598;62.382;17.344;2023-05-16T03:11:58;100979.78;;;23.82;29.18
13478;BME280;12598;62.382;17.344;2023-05-16T03:13:00;100974.38;;;23.82;29.84
13478;BME280;12598;62.382;17.344;2023-05-16T03:14:02;100971.69;;;23.82;29.50
13478;BME280;12598;62.382;17.344;2023-05-16T03:15:05;100976.22;;;23.81;29.38
13478;BME280;12598;62.382;17.344;2023-05-16T03:16:09;100974.22;;;23.83;29.59
13478;BME280;12598;62.382;17.344;2023-05-16T03:17:11;100966.13;;;23.83;29.86
13478;BME280;12598;62.382;17.344;2023-05-16T03:18:13;100967.13;;;23.82;29.33
13478;BME280;12598;62.382;17.344;2023-05-16T03:19:16;100967.13;;;23.82;29.45
13478;BME280;12598;62.382;17.344;2023-05-16T03:20:18;100957.16;;;23.83;29.55
13478;BME280;12598;62.382;17.344;2023-05-16T03:21:20;100956.34;;;23.82;29.49
13478;BME280;12598;62.382;17.344;2023-05-16T03:22:22;100950.94;;;23.82;29.38
13478;BME280;12598;62.382;17.344;2023-05-16T03:23:24;100952.63;;;23.83;29.75
13478;BME280;12598;62.382;17.344;2023-05-16T03:24:26;100955.31;;;23.83;29.08
13478;BME280;12598;62.382;17.344;2023-05-16T03:25:28;100954.28;;;23.84;29.80
13478;BME280;12598;62.382;17.344;2023-05-16T03:26:30;100942.47;;;23.77;29.15
13478;BME280;12598;62.382;17.344;2023-05-16T03:27:32;100962.41;;;23.84;29.71
13478;BME280;12598;62.382;17.344;2023-05-16T03:28:33;100952.63;;;23.83;29.06
13478;BME280;12598;62.382;17.344;2023-05-16T03:29:36;100957.00;;;23.84;29.89
13478;BME280;12598;62.382;17.344;2023-05-16T03:30:38;100945.34;;;23.84;29.48
13478;BME280;12598;62.382;17.344;2023-05-16T03:31:40;100954.28;;;23.84;29.32
13478;BME280;12598;62.382;17.344;2023-05-16T03:32:44;100948.03;;;23.84;29.62
13478;BME280;12598;62.382;17.344;2023-05-16T03:33:46;100945.16;;;23.85;29.22
13478;BME280;12598;62.382;17.344;2023-05-16T03:34:48;100946.84;;;23.86;29.66
13478;BME280;12598;62.382;17.344;2023-05-16T03:35:50;100942.47;;;23.85;29.34
13478;BME280;12598;62.382;17.344;2023-05-16T03:36:52;100939.78;;;23.85;29.72
13478;BME280;12598;62.382;17.344;2023-05-16T03:37:55;100933.34;;;23.86;29.73
13478;BME280;12598;62.382;17.344;2023-05-16T03:38:57;100936.03;;;23.86;29.83
13478;BME280;12598;62.382;17.344;2023-05-16T03:39:59;100936.03;;;23.86;29.57
13478;BME280;12598;62.382;17.344;2023-05-16T03:41:01;100918.81;;;23.79;29.44
13478;BME280;12598;62.382;17.344;2023-05-16T03:42:03;100931.66;;;23.85;28.94
13478;BME280;12598;62.382;17.344;2023-05-16T03:43:05;100927.94;;;23.86;29.33
13478;BME280;12598;62.382;17.344;2023-05-16T03:44:07;100930.81;;;23.85;29.68
13478;BME280;12598;62.382;17.344;2023-05-16T03:45:10;100924.59;;;23.84;29.13
13478;BME280;12598;62.382;17.344;2023-05-16T03:46:12;100917.97;;;23.87;28.94
13478;BME280;12598;62.382;17.344;2023-05-16T03:47:15;100925.25;;;23.86;28.95
13478;BME280;12598;62.382;17.344;2023-05-16T03:48:16;100920.88;;;23.85;28.81
13478;BME280;12598;62.382;17.344;2023-05-16T03:49:25;100914.81;;;23.83;29.54
13478;BME280;12598;62.382;17.344;2023-05-16T03:50:29;100920.31;;;23.90;28.83
13478;BME280;12598;62.382;17.344;2023-05-16T03:51:30;100921.31;;;23.89;29.46
13478;BME280;12598;62.382;17.344;2023-05-16T03:52:33;100920.31;;;23.90;29.01
13478;BME280;12598;62.382;17.344;2023-05-16T03:53:36;100919.84;;;23.86;29.36
13478;BME280;12598;62.382;17.344;2023-05-16T03:54:38;100924.22;;;23.87;28.93
13478;BME280;12598;62.382;17.344;2023-05-16T03:55:40;100917.97;;;23.87;29.65
13478;BME280;12598;62.382;17.344;2023-05-16T03:56:41;100920.66;;;23.87;29.64
13478;BME280;12598;62.382;17.344;2023-05-16T03:57:44;100923.38;;;23.87;29.05
13478;BME280;12598;62.382;17.344;2023-05-16T03:58:47;100917.78;;;23.88;29.06
13478;BME280;12598;62.382;17.344;2023-05-16T03:59:49;100919.47;;;23.89;29.18
13478;BME280;12598;62.382;17.344;2023-05-16T04:00:50;100914.06;;;23.89;29.10
13478;BME280;12598;62.382;17.344;2023-05-16T04:01:52;100914.06;;;23.89;29.57
13478;BME280;12598;62.382;17.344;2023-05-16T04:02:54;100916.78;;;23.89;29.59
13478;BME280;12598;62.382;17.344;2023-05-16T04:03:56;100912.41;;;23.88;29.28
13478;BME280;12598;62.382;17.344;2023-05-16T04:04:58;100906.78;;;23.90;29.09
13478;BME280;12598;62.382;17.344;2023-05-16T04:06:00;100913.06;;;23.90;29.33
13478;BME280;12598;62.382;17.344;2023-05-16T04:07:02;100901.09;;;23.85;29.54
13478;BME280;12598;62.382;17.344;2023-05-16T04:08:04;100903.28;;;23.89;29.25
13478;BME280;12598;62.382;17.344;2023-05-16T04:09:06;100914.06;;;23.89;29.36
13478;BME280;12598;62.382;17.344;2023-05-16T04:10:08;100905.97;;;23.89;29.30
13478;BME280;12598;62.382;17.344;2023-05-16T04:11:10;100904.94;;;23.90;29.72
13478;BME280;12598;62.382;17.344;2023-05-16T04:12:12;100910.34;;;23.90;29.64
13478;BME280;12598;62.382;17.344;2023-05-16T04:13:14;100900.56;;;23.89;29.13
13478;BME280;12598;62.382;17.344;2023-05-16T04:14:16;100906.63;;;23.91;29.49
13478;BME280;12598;62.382;17.344;2023-05-16T04:15:18;100904.94;;;23.90;29.13
13478;BME280;12598;62.382;17.344;2023-05-16T04:16:20;100905.78;;;23.91;28.90
13478;BME280;12598;62.382;17.344;2023-05-16T04:17:22;100905.78;;;23.91;29.28
13478;BME280;12598;62.382;17.344;2023-05-16T04:18:24;100903.94;;;23.91;29.04
13478;BME280;12598;62.382;17.344;2023-05-16T04:19:26;100906.63;;;23.91;28.99
13478;BME280;12598;62.382;17.344;2023-05-16T04:20:27;100906.63;;;23.91;29.24
13478;BME280;12598;62.382;17.344;2023-05-16T04:21:31;100900.00;;;23.94;29.00
13478;BME280;12598;62.382;17.344;2023-05-16T04:22:33;100896.66;;;23.92;29.71
13478;BME280;12598;62.382;17.344;2023-05-16T04:23:35;100903.72;;;23.93;29.47
13478;BME280;12598;62.382;17.344;2023-05-16T04:24:37;100891.09;;;23.93;29.43
13478;BME280;12598;62.382;17.344;2023-05-16T04:25:39;100892.94;;;23.93;29.54
13478;BME280;12598;62.382;17.344;2023-05-16T04:26:41;100891.91;;;23.94;29.17
13478;BME280;12598;62.382;17.344;2023-05-16T04:27:43;100889.19;;;23.94;29.44
13478;BME280;12598;62.382;17.344;2023-05-16T04:28:45;100887.34;;;23.94;28.88
13478;BME280;12598;62.382;17.344;2023-05-16T04:29:47;100890.06;;;23.94;28.89
13478;BME280;12598;62.382;17.344;2023-05-16T04:30:49;100891.09;;;23.93;29.68
13478;BME280;12598;62.382;17.344;2023-05-16T04:31:51;100884.66;;;23.94;29.73
13478;BME280;12598;62.382;17.344;2023-05-16T04:32:52;100884.44;;;23.96;29.40
13478;BME280;12598;62.382;17.344;2023-05-16T04:33:55;100884.00;;;23.92;29.07
13478;BME280;12598;62.382;17.344;2023-05-16T04:34:58;100889.69;;;23.97;29.50
13478;BME280;12598;62.382;17.344;2023-05-16T04:36:00;100887.00;;;23.97;29.54
13478;BME280;12598;62.382;17.344;2023-05-16T04:37:03;100880.94;;;23.95;29.54
13478;BME280;12598;62.382;17.344;2023-05-16T04:38:06;100884.28;;;23.97;29.51
13478;BME280;12598;62.382;17.344;2023-05-16T04:39:07;100877.88;;;23.98;29.29
13478;BME280;12598;62.382;17.344;2023-05-16T04:40:10;100873.47;;;23.97;29.24
13478;BME280;12598;62.382;17.344;2023-05-16T04:41:13;100873.47;;;23.97;28.91
13478;BME280;12598;62.382;17.344;2023-05-16T04:42:15;100879.72;;;23.98;29.20
13478;BME280;12598;62.382;17.344;2023-05-16T04:43:19;100876.56;;;23.94;29.46
13478;BME280;12598;62.382;17.344;2023-05-16T04:44:20;100877.88;;;23.98;29.23
13478;BME280;12598;62.382;17.344;2023-05-16T04:45:22;100876.19;;;23.97;28.87
13478;BME280;12598;62.382;17.344;2023-05-16T04:46:24;100878.88;;;23.97;29.25
13478;BME280;12598;62.382;17.344;2023-05-16T04:47:26;100878.88;;;23.97;29.44
13478;BME280;12598;62.382;17.344;2023-05-16T04:48:29;100878.03;;;23.97;29.49
13478;BME280;12598;62.382;17.344;2023-05-16T04:49:31;100875.16;;;23.98;28.74
13478;BME280;12598;62.382;17.344;2023-05-16T04:50:33;100875.31;;;23.97;29.04
13478;BME280;12598;62.382;17.344;2023-05-16T04:51:35;100880.56;;;23.98;28.86
13478;BME280;12598;62.382;17.344;2023-05-16T04:52:36;100871.59;;;23.98;29.03
13478;BME280;12598;62.382;17.344;2023-05-16T04:53:38;100875.16;;;23.98;29.42
13478;BME280;12598;62.382;17.344;2023-05-16T04:54:40;100869.75;;;23.98;29.14
13478;BME280;12598;62.382;17.344;2023-05-16T04:55:43;100879.53;;;23.99;29.34
13478;BME280;12598;62.382;17.344;2023-05-16T04:56:44;100865.38;;;23.97;28.92
13478;BME280;12598;62.382;17.344;2023-05-16T04:57:46;100868.06;;;23.97;28.71
13478;BME280;12598;62.382;17.344;2023-05-16T04:58:48;100876.84;;;23.99;29.48
13478;BME280;12598;62.382;17.344;2023-05-16T04:59:50;100868.72;;;23.99;28.83
13478;BME280;12598;62.382;17.344;2023-05-16T05:00:52;100871.44;;;23.99;29.53
13478;BME280;12598;62.382;17.344;2023-05-16T05:01:53;100863.34;;;23.99;28.84
13478;BME280;12598;62.382;17.344;2023-05-16T05:02:55;100876.84;;;23.99;29.55
13478;BME280;12598;62.382;17.344;2023-05-16T05:03:57;100832.41;;;23.79;28.98
13478;BME280;12598;62.382;17.344;2023-05-16T05:04:59;100866.84;;;24.00;28.77
13478;BME280;12598;62.382;17.344;2023-05-16T05:06:01;100866.03;;;23.99;29.05
13478;BME280;12598;62.382;17.344;2023-05-16T05:07:03;100863.34;;;23.99;29.43
13478;BME280;12598;62.382;17.344;2023-05-16T05:08:05;100866.84;;;24.00;28.80
13478;BME280;12598;62.382;17.344;2023-05-16T05:09:08;100864.00;;;24.01;29.16
13478;BME280;12598;62.382;17.344;2023-05-16T05:10:10;100868.38;;;24.02;28.78
13478;BME280;12598;62.382;17.344;2023-05-16T05:11:12;100857.28;;;23.97;29.43
13478;BME280;12598;62.382;17.344;2023-05-16T05:12:14;100866.31;;;24.04;29.44
13478;BME280;12598;62.382;17.344;2023-05-16T05:13:16;100874.06;;;24.07;29.11
13478;BME280;12598;62.382;17.344;2023-05-16T05:14:17;100860.75;;;24.06;29.04
13478;BME280;12598;62.382;17.344;2023-05-16T05:15:19;100867.47;;;24.09;28.76
13478;BME280;12598;62.382;17.344;2023-05-16T05:16:21;100873.31;;;24.13;29.19
13478;BME280;12598;62.382;17.344;2023-05-16T05:17:24;100872.28;;;24.14;28.60
13478;BME280;12598;62.382;17.344;2023-05-16T05:18:26;100870.06;;;24.17;29.29
13478;BME280;12598;62.382;17.344;2023-05-16T05:19:28;100868.84;;;24.20;28.75
13478;BME280;12598;62.382;17.344;2023-05-16T05:20:30;100869.34;;;24.23;29.26
13478;BME280;12598;62.382;17.344;2023-05-16T05:21:32;100872.50;;;24.27;28.53
13478;BME280;12598;62.382;17.344;2023-05-16T05:22:33;100864.19;;;24.28;28.47
13478;BME280;12598;62.382;17.344;2023-05-16T05:23:35;100862.00;;;24.32;28.88
13478;BME280;12598;62.382;17.344;2023-05-16T05:24:37;100867.84;;;24.35;28.31
13478;BME280;12598;62.382;17.344;2023-05-16T05:25:39;100866.66;;;24.38;28.76
13478;BME280;12598;62.382;17.344;2023-05-16T05:26:41;100864.38;;;24.41;28.27
13478;BME280;12598;62.382;17.344;2023-05-16T05:27:43;100860.50;;;24.44;28.51
13478;BME280;12598;62.382;17.344;2023-05-16T05:28:45;100868.06;;;24.48;28.65
13478;BME280;12598;62.382;17.344;2023-05-16T05:30:02;100864.44;;;24.56;28.67
13478;BME280;12598;62.382;17.344;2023-05-16T05:31:04;100862.38;;;24.58;27.94
13478;BME280;12598;62.382;17.344;2023-05-16T05:32:06;100854.91;;;24.60;27.80
13478;BME280;12598;62.382;17.344;2023-05-16T05:33:10;100861.16;;;24.60;28.12
13478;BME280;12598;62.382;17.344;2023-05-16T05:34:12;100855.19;;;24.65;28.02
13478;BME280;12598;62.382;17.344;2023-05-16T05:35:14;100861.06;;;24.68;28.36
13478;BME280;12598;62.382;17.344;2023-05-16T05:36:16;100854.47;;;24.71;28.00
13478;BME280;12598;62.382;17.344;2023-05-16T05:37:18;100862.19;;;24.74;27.81
13478;BME280;12598;62.382;17.344;2023-05-16T05:38:20;100849.69;;;24.73;27.77
13478;BME280;12598;62.382;17.344;2023-05-16T05:39:23;100853.50;;;24.78;27.67